sensor_id;sensor_type;location;lat;lon;timestamp;pressure;altitude;pressure_sealevel;temperature;humidity
14882;BME280;7533;51.278;12.588;2023-08-07T00:02:00;98938.50;;;28.23;57.40
14882;BME280;7533;51.278;12.588;2023-08-07T00:07:03;98944.28;;;28.20;57.60
14882;BME280;7533;51.278;12.588;2023-08-07T00:12:07;98945.88;;;28.14;57.48
14882;BME280;7533;51.278;12.588;2023-08-07T00:17:10;98949.13;;;28.10;57.48
14882;BME280;7533;51.278;12.588;2023-08-07T00:22:13;98947.78;;;28.06;57.65
14882;BME280;7533;51.278;12.588;2023-08-07T00:27:18;98946.84;;;27.99;58.00
14882;BME280;7533;51.278;12.588;2023-08-07T00:32:20;98948.91;;;27.97;58.08
14882;BME280;7533;51.278;12.588;2023-08-07T00:37:23;98954.88;;;27.92;57.82
14882;BME280;7533;51.278;12.588;2023-08-07T00:42:28;98949.13;;;27.87;58.12
14882;BME280;7533;51.278;12.588;2023-08-07T00:47:30;98953.22;;;27.83;58.26
14882;BME280;7533;51.278;12.588;2023-08-07T00:52:33;98951.06;;;27.78;58.37
14882;BME280;7533;51.278;12.588;2023-08-07T00:57:38;98947.66;;;27.76;58.36
14882;BME280;7533;51.278;12.588;2023-08-07T01:02:41;98953.63;;;27.72;58.44
14882;BME280;7533;51.278;12.588;2023-08-07T01:07:46;98954.16;;;27.67;58.42
14882;BME280;7533;51.278;12.588;2023-08-07T01:13:00;98941.78;;;27.64;58.72
14882;BME280;7533;51.278;12.588;2023-08-07T01:18:07;98943.97;;;27.61;58.67
14882;BME280;7533;51.278;12.588;2023-08-07T01:23:11;98949.97;;;27.56;58.81
14882;BME280;7533;51.278;12.588;2023-08-07T01:28:19;98957.63;;;27.53;58.73
14882;BME280;7533;51.278;12.588;2023-08-07T01:33:31;98966.13;;;27.50;59.06
14882;BME280;7533;51.278;12.588;2023-08-07T01:38:37;98965.66;;;27.46;59.07
14882;BME280;7533;51.278;12.588;2023-08-07T01:43:40;98957.00;;;27.42;59.00
14882;BME280;7533;51.278;12.588;2023-08-07T01:48:43;98971.63;;;27.41;58.94
14882;BME280;7533;51.278;12.588;2023-08-07T01:53:47;98967.03;;;27.42;59.13
14882;BME280;7533;51.278;12.588;2023-08-07T01:58:50;98979.63;;;27.35;59.17
14882;BME280;7533;51.278;12.588;2023-08-07T02:03:53;98975.75;;;27.29;59.21
14882;BME280;7533;51.278;12.588;2023-08-07T02:08:58;98974.41;;;27.25;59.39
14882;BME280;7533;51.278;12.588;2023-08-07T02:14:01;98981.03;;;27.23;59.38
14882;BME280;7533;51.278;12.588;2023-08-07T02:19:04;98985.97;;;27.19;59.43
14882;BME280;7533;51.278;12.588;2023-08-07T02:24:08;98980.03;;;27.15;59.44
14882;BME280;7533;51.278;12.588;2023-08-07T02:29:13;98994.81;;;27.13;59.54
14882;BME280;7533;51.278;12.588;2023-08-07T02:34:16;99000.94;;;27.07;59.53
14882;BME280;7533;51.278;12.588;2023-08-07T02:39:21;99011.97;;;27.05;59.54
14882;BME280;7533;51.278;12.588;2023-08-07T02:44:24;99010.59;;;27.01;59.73
14882;BME280;7533;51.278;12.588;2023-08-07T02:49:26;99018.75;;;27.01;59.67
14882;BME280;7533;51.278;12.588;2023-08-07T02:54:31;99025.38;;;26.99;59.81
14882;BME280;7533;51.278;12.588;2023-08-07T02:59:34;99017.75;;;26.94;59.80
14882;BME280;7533;51.278;12.588;2023-08-07T03:04:37;99024.03;;;26.95;59.96
14882;BME280;7533;51.278;12.588;2023-08-07T03:09:45;99025.72;;;26.96;59.76
14882;BME280;7533;51.278;12.588;2023-08-07T03:14:48;99021.31;;;26.95;59.82
14882;BME280;7533;51.278;12.588;2023-08-07T03:19:51;99033.19;;;26.94;59.80
14882;BME280;7533;51.278;12.588;2023-08-07T03:24:55;99036.44;;;26.89;60.29
14882;BME280;7533;51.278;12.588;2023-08-07T03:29:58;99040.31;;;26.86;59.95
14882;BME280;7533;51.278;12.588;2023-08-07T03:35:04;99046.13;;;26.83;60.00
14882;BME280;7533;51.278;12.588;2023-08-07T03:40:09;99041.66;;;26.82;59.86
14882;BME280;7533;51.278;12.588;2023-08-07T03:45:13;99052.72;;;26.81;60.19
14882;BME280;7533;51.278;12.588;2023-08-07T03:50:17;99054.75;;;26.79;60.03
14882;BME280;7533;51.278;12.588;2023-08-07T03:55:21;99072.22;;;26.76;60.11
14882;BME280;7533;51.278;12.588;2023-08-07T04:00:24;99065.94;;;26.76;60.18
14882;BME280;7533;51.278;12.588;2023-08-07T04:05:26;99072.75;;;26.72;60.42
14882;BME280;7533;51.278;12.588;2023-08-07T04:10:31;99073.59;;;26.72;60.45
14882;BME280;7533;51.278;12.588;2023-08-07T04:15:33;99066.63;;;26.70;60.25
14882;BME280;7533;51.278;12.588;2023-08-07T04:20:36;99075.78;;;26.69;60.51
14882;BME280;7533;51.278;12.588;2023-08-07T04:25:41;99078.00;;;26.65;60.59
14882;BME280;7533;51.278;12.588;2023-08-07T04:30:44;99083.59;;;26.63;60.33
14882;BME280;7533;51.278;12.588;2023-08-07T04:35:47;99092.75;;;26.62;60.27
14882;BME280;7533;51.278;12.588;2023-08-07T04:40:52;99108.19;;;26.62;60.39
14882;BME280;7533;51.278;12.588;2023-08-07T04:45:55;99111.94;;;26.61;60.51
14882;BME280;7533;51.278;12.588;2023-08-07T04:50:58;99120.22;;;26.59;60.49
14882;BME280;7533;51.278;12.588;2023-08-07T04:56:02;99114.97;;;26.58;60.43
14882;BME280;7533;51.278;12.588;2023-08-07T05:01:05;99118.72;;;26.57;60.60
14882;BME280;7533;51.278;12.588;2023-08-07T05:06:08;99118.88;;;26.55;60.61
14882;BME280;7533;51.278;12.588;2023-08-07T05:11:12;99127.16;;;26.54;60.48
14882;BME280;7533;51.278;12.588;2023-08-07T05:16:17;99132.44;;;26.55;60.59
14882;BME280;7533;51.278;12.588;2023-08-07T05:21:20;99126.19;;;26.55;60.65
14882;BME280;7533;51.278;12.588;2023-08-07T05:26:25;99131.59;;;26.55;60.58
14882;BME280;7533;51.278;12.588;2023-08-07T05:31:28;99127.16;;;26.54;60.53
14882;BME280;7533;51.278;12.588;2023-08-07T05:36:32;99137.34;;;26.52;60.36
14882;BME280;7533;51.278;12.588;2023-08-07T05:41:36;99124.81;;;26.51;60.36
14882;BME280;7533;51.278;12.588;2023-08-07T05:46:40;99131.06;;;26.51;60.47
14882;BME280;7533;51.278;12.588;2023-08-07T05:51:45;99142.25;;;26.48;60.61
14882;BME280;7533;51.278;12.588;2023-08-07T05:56:52;99158.53;;;26.48;60.33
14882;BME280;7533;51.278;12.588;2023-08-07T06:02:00;99160.41;;;26.48;60.38
14882;BME280;7533;51.278;12.588;2023-08-07T06:07:12;99159.72;;;26.46;60.29
14882;BME280;7533;51.278;12.588;2023-08-07T06:12:19;99174.13;;;26.46;60.37
14882;BME280;7533;51.278;12.588;2023-08-07T06:17:23;99184.16;;;26.46;60.41
14882;BME280;7533;51.278;12.588;2023-08-07T06:22:32;99183.13;;;26.47;60.35
14882;BME280;7533;51.278;12.588;2023-08-07T06:27:39;99191.25;;;26.47;60.22
14882;BME280;7533;51.278;12.588;2023-08-07T06:32:45;99210.75;;;26.08;59.46
14882;BME280;7533;51.278;12.588;2023-08-07T06:37:53;99214.09;;;25.94;59.02
14882;BME280;7533;51.278;12.588;2023-08-07T06:43:03;99205.53;;;25.80;59.74
14882;BME280;7533;51.278;12.588;2023-08-07T06:48:09;99213.16;;;26.11;60.21
14882;BME280;7533;51.278;12.588;2023-08-07T06:53:17;99212.50;;;26.17;59.86
14882;BME280;7533;51.278;12.588;2023-08-07T06:58:26;99221.13;;;26.21;59.77
14882;BME280;7533;51.278;12.588;2023-08-07T07:03:44;99212.88;;;26.22;59.95
14882;BME280;7533;51.278;12.588;2023-08-07T07:09:03;99229.13;;;26.22;60.14
14882;BME280;7533;51.278;12.588;2023-08-07T07:14:13;99235.25;;;26.24;60.39
14882;BME280;7533;51.278;12.588;2023-08-07T07:19:17;99236.94;;;26.25;60.07
14882;BME280;7533;51.278;12.588;2023-08-07T07:24:20;99244.59;;;26.30;60.36
14882;BME280;7533;51.278;12.588;2023-08-07T07:29:24;99246.13;;;26.32;60.25
14882;BME280;7533;51.278;12.588;2023-08-07T07:34:27;99243.09;;;26.35;60.25
14882;BME280;7533;51.278;12.588;2023-08-07T07:39:30;99246.47;;;26.37;60.10
14882;BME280;7533;51.278;12.588;2023-08-07T07:44:35;99243.75;;;26.37;60.27
14882;BME280;7533;51.278;12.588;2023-08-07T07:49:38;99253.75;;;26.37;60.28
14882;BME280;7533;51.278;12.588;2023-08-07T07:54:42;99254.47;;;26.39;60.17
14882;BME280;7533;51.278;12.588;2023-08-07T07:59:46;99264.16;;;26.42;60.25
14882;BME280;7533;51.278;12.588;2023-08-07T08:04:50;99289.16;;;25.93;58.73
14882;BME280;7533;51.278;12.588;2023-08-07T08:09:54;99293.13;;;25.63;59.49
14882;BME280;7533;51.278;12.588;2023-08-07T08:14:58;99298.88;;;25.60;59.60
14882;BME280;7533;51.278;12.588;2023-08-07T08:20:02;99292.34;;;25.53;59.67
14882;BME280;7533;51.278;12.588;2023-08-07T08:25:07;99291.53;;;25.35;59.27
14882;BME280;7533;51.278;12.588;2023-08-07T08:30:14;99310.47;;;25.35;59.18
14882;BME280;7533;51.278;12.588;2023-08-07T08:35:19;99304.06;;;25.36;58.74
14882;BME280;7533;51.278;12.588;2023-08-07T08:40:26;99310.41;;;25.26;59.26
14882;BME280;7533;51.278;12.588;2023-08-07T08:45:30;99302.53;;;25.15;58.78
14882;BME280;7533;51.278;12.588;2023-08-07T08:50:35;99312.91;;;25.20;59.20
14882;BME280;7533;51.278;12.588;2023-08-07T08:55:39;99298.97;;;25.32;59.33
14882;BME280;7533;51.278;12.588;2023-08-07T09:00:46;99293.44;;;25.60;59.52
14882;BME280;7533;51.278;12.588;2023-08-07T09:05:53;99312.00;;;25.73;59.31
14882;BME280;7533;51.278;12.588;2023-08-07T09:10:56;99309.38;;;25.81;59.41
14882;BME280;7533;51.278;12.588;2023-08-07T09:16:04;99308.44;;;25.72;59.56
14882;BME280;7533;51.278;12.588;2023-08-07T09:21:09;99307.88;;;25.87;59.95
14882;BME280;7533;51.278;12.588;2023-08-07T09:26:21;99343.06;;;25.25;59.36
14882;BME280;7533;51.278;12.588;2023-08-07T09:31:26;99350.94;;;25.18;59.25
14882;BME280;7533;51.278;12.588;2023-08-07T09:36:30;99349.00;;;25.11;59.42
14882;BME280;7533;51.278;12.588;2023-08-07T09:41:33;99333.22;;;25.06;60.02
14882;BME280;7533;51.278;12.588;2023-08-07T09:46:44;99335.88;;;25.51;59.64
14882;BME280;7533;51.278;12.588;2023-08-07T09:51:49;99340.75;;;25.66;59.99
14882;BME280;7533;51.278;12.588;2023-08-07T09:56:55;99330.97;;;25.73;59.96
14882;BME280;7533;51.278;12.588;2023-08-07T10:02:03;99334.09;;;25.78;59.73
14882;BME280;7533;51.278;12.588;2023-08-07T10:07:06;99326.19;;;25.84;59.58
14882;BME280;7533;51.278;12.588;2023-08-07T10:12:11;99317.75;;;25.88;59.59
14882;BME280;7533;51.278;12.588;2023-08-07T10:17:16;99325.06;;;25.95;59.56
14882;BME280;7533;51.278;12.588;2023-08-07T10:22:19;99346.47;;;25.98;59.63
14882;BME280;7533;51.278;12.588;2023-08-07T10:27:23;99338.63;;;25.95;59.92
14882;BME280;7533;51.278;12.588;2023-08-07T10:32:28;99343.38;;;25.93;60.27
14882;BME280;7533;51.278;12.588;2023-08-07T10:37:38;99353.50;;;25.91;60.16
14882;BME280;7533;51.278;12.588;2023-08-07T10:42:52;99359.47;;;25.95;60.09
14882;BME280;7533;51.278;12.588;2023-08-07T10:48:07;99355.75;;;25.96;59.93
14882;BME280;7533;51.278;12.588;2023-08-07T10:53:18;99339.69;;;26.02;60.40
14882;BME280;7533;51.278;12.588;2023-08-07T10:58:23;99355.03;;;26.11;59.94
14882;BME280;7533;51.278;12.588;2023-08-07T11:03:28;99348.59;;;26.13;60.39
14882;BME280;7533;51.278;12.588;2023-08-07T11:08:31;99353.53;;;26.17;60.50
14882;BME280;7533;51.278;12.588;2023-08-07T11:13:34;99356.25;;;26.17;60.55
14882;BME280;7533;51.278;12.588;2023-08-07T11:18:38;99339.31;;;26.23;60.38
14882;BME280;7533;51.278;12.588;2023-08-07T11:23:43;99330.53;;;26.29;60.04
14882;BME280;7533;51.278;12.588;2023-08-07T11:28:47;99340.38;;;26.30;59.98
14882;BME280;7533;51.278;12.588;2023-08-07T11:33:52;99323.31;;;26.38;60.02
14882;BME280;7533;51.278;12.588;2023-08-07T11:38:55;99336.25;;;26.44;60.06
14882;BME280;7533;51.278;12.588;2023-08-07T11:43:58;99340.13;;;26.42;59.85
14882;BME280;7533;51.278;12.588;2023-08-07T11:49:03;99350.94;;;26.33;59.91
14882;BME280;7533;51.278;12.588;2023-08-07T11:54:07;99344.22;;;26.46;59.98
14882;BME280;7533;51.278;12.588;2023-08-07T11:59:10;99349.91;;;26.60;59.45
14882;BME280;7533;51.278;12.588;2023-08-07T12:04:17;99353.97;;;26.64;59.29
14882;BME280;7533;51.278;12.588;2023-08-07T12:09:22;99359.94;;;26.68;59.46
14882;BME280;7533;51.278;12.588;2023-08-07T12:14:30;99343.50;;;26.70;59.38
14882;BME280;7533;51.278;12.588;2023-08-07T12:19:38;99345.69;;;26.66;59.81
14882;BME280;7533;51.278;12.588;2023-08-07T12:24:45;99345.66;;;26.58;60.03
14882;BME280;7533;51.278;12.588;2023-08-07T12:29:49;99354.03;;;26.73;59.55
14882;BME280;7533;51.278;12.588;2023-08-07T12:35:00;99368.28;;;26.75;59.31
14882;BME280;7533;51.278;12.588;2023-08-07T12:40:10;99365.94;;;26.80;59.39
14882;BME280;7533;51.278;12.588;2023-08-07T12:45:20;99367.25;;;26.76;59.65
14882;BME280;7533;51.278;12.588;2023-08-07T12:50:44;99370.72;;;26.86;59.65
14882;BME280;7533;51.278;12.588;2023-08-07T12:55:47;99377.34;;;26.92;59.50
14882;BME280;7533;51.278;12.588;2023-08-07T13:00:50;99389.91;;;26.93;59.35
14882;BME280;7533;51.278;12.588;2023-08-07T13:05:54;99400.47;;;26.96;59.44
14882;BME280;7533;51.278;12.588;2023-08-07T13:10:59;99414.53;;;26.99;59.67
14882;BME280;7533;51.278;12.588;2023-08-07T13:16:03;99419.28;;;26.97;59.56
14882;BME280;7533;51.278;12.588;2023-08-07T13:21:07;99424.69;;;26.89;59.66
14882;BME280;7533;51.278;12.588;2023-08-07T13:26:10;99410.13;;;26.98;60.01
14882;BME280;7533;51.278;12.588;2023-08-07T13:31:13;99404.22;;;27.03;59.66
14882;BME280;7533;51.278;12.588;2023-08-07T13:36:18;99415.81;;;26.79;60.33
14882;BME280;7533;51.278;12.588;2023-08-07T13:41:21;99412.09;;;26.54;61.06
14882;BME280;7533;51.278;12.588;2023-08-07T13:46:24;99440.47;;;26.85;60.35
14882;BME280;7533;51.278;12.588;2023-08-07T13:51:29;99471.44;;;27.01;60.21
14882;BME280;7533;51.278;12.588;2023-08-07T13:56:31;99477.78;;;27.09;59.95
14882;BME280;7533;51.278;12.588;2023-08-07T14:01:35;99471.06;;;26.96;61.23
14882;BME280;7533;51.278;12.588;2023-08-07T14:06:40;99479.88;;;26.98;61.17
14882;BME280;7533;51.278;12.588;2023-08-07T14:11:44;99495.63;;;26.86;61.43
14882;BME280;7533;51.278;12.588;2023-08-07T14:16:47;99492.06;;;26.85;61.29
14882;BME280;7533;51.278;12.588;2023-08-07T14:21:53;99488.28;;;26.78;61.47
14882;BME280;7533;51.278;12.588;2023-08-07T14:26:56;99496.44;;;26.78;61.47
14882;BME280;7533;51.278;12.588;2023-08-07T14:31:59;99503.56;;;26.79;61.29
14882;BME280;7533;51.278;12.588;2023-08-07T14:37:04;99542.09;;;26.83;61.36
14882;BME280;7533;51.278;12.588;2023-08-07T14:42:07;99550.56;;;26.80;61.28
14882;BME280;7533;51.278;12.588;2023-08-07T14:47:10;99542.25;;;26.81;60.99
14882;BME280;7533;51.278;12.588;2023-08-07T14:52:14;99566.47;;;26.75;60.97
14882;BME280;7533;51.278;12.588;2023-08-07T14:57:17;99543.53;;;26.69;60.84
14882;BME280;7533;51.278;12.588;2023-08-07T15:02:20;99554.59;;;26.76;60.55
14882;BME280;7533;51.278;12.588;2023-08-07T15:07:24;99553.28;;;26.80;60.33
14882;BME280;7533;51.278;12.588;2023-08-07T15:12:27;99560.94;;;26.84;60.25
14882;BME280;7533;51.278;12.588;2023-08-07T15:17:30;99552.06;;;27.00;59.60
14882;BME280;7533;51.278;12.588;2023-08-07T15:22:35;99560.22;;;27.00;59.72
14882;BME280;7533;51.278;12.588;2023-08-07T15:27:38;99559.38;;;26.82;60.29
14882;BME280;7533;51.278;12.588;2023-08-07T15:32:41;99558.13;;;27.20;59.58
14882;BME280;7533;51.278;12.588;2023-08-07T15:37:45;99558.91;;;27.38;59.29
14882;BME280;7533;51.278;12.588;2023-08-07T15:42:48;99572.38;;;27.48;59.06
14882;BME280;7533;51.278;12.588;2023-08-07T15:47:51;99564.75;;;27.52;58.65
14882;BME280;7533;51.278;12.588;2023-08-07T15:52:56;99574.53;;;27.36;59.21
14882;BME280;7533;51.278;12.588;2023-08-07T15:57:59;99600.53;;;27.39;59.39
14882;BME280;7533;51.278;12.588;2023-08-07T16:03:04;99619.41;;;27.40;59.40
14882;BME280;7533;51.278;12.588;2023-08-07T16:08:09;99608.06;;;27.53;60.02
14882;BME280;7533;51.278;12.588;2023-08-07T16:13:12;99612.25;;;28.08;58.27
14882;BME280;7533;51.278;12.588;2023-08-07T16:18:16;99632.19;;;27.82;59.42
14882;BME280;7533;51.278;12.588;2023-08-07T16:23:20;99637.16;;;27.61;61.29
14882;BME280;7533;51.278;12.588;2023-08-07T16:28:23;99658.72;;;27.54;62.37
14882;BME280;7533;51.278;12.588;2023-08-07T16:33:26;99650.13;;;27.67;62.57
14882;BME280;7533;51.278;12.588;2023-08-07T16:38:31;99655.88;;;27.64;62.30
14882;BME280;7533;51.278;12.588;2023-08-07T16:43:34;99667.72;;;27.55;60.50
14882;BME280;7533;51.278;12.588;2023-08-07T16:48:37;99660.56;;;27.54;59.63
14882;BME280;7533;51.278;12.588;2023-08-07T16:53:41;99661.88;;;27.41;59.02
14882;BME280;7533;51.278;12.588;2023-08-07T16:58:48;99658.47;;;27.39;57.82
14882;BME280;7533;51.278;12.588;2023-08-07T17:03:52;99672.09;;;27.48;57.59
14882;BME280;7533;51.278;12.588;2023-08-07T17:08:56;99666.56;;;27.57;57.83
14882;BME280;7533;51.278;12.588;2023-08-07T17:14:00;99672.19;;;27.64;58.42
14882;BME280;7533;51.278;12.588;2023-08-07T17:19:03;99665.69;;;27.83;58.33
14882;BME280;7533;51.278;12.588;2023-08-07T17:24:08;99678.03;;;28.03;57.68
14882;BME280;7533;51.278;12.588;2023-08-07T17:29:10;99679.44;;;28.15;57.48
14882;BME280;7533;51.278;12.588;2023-08-07T17:34:13;99686.06;;;28.21;57.24
14882;BME280;7533;51.278;12.588;2023-08-07T17:39:18;99684.22;;;28.21;57.13
14882;BME280;7533;51.278;12.588;2023-08-07T17:44:21;99693.22;;;28.22;57.52
14882;BME280;7533;51.278;12.588;2023-08-07T17:49:24;99702.59;;;28.28;57.42
14882;BME280;7533;51.278;12.588;2023-08-07T17:54:29;99702.22;;;28.23;57.58
14882;BME280;7533;51.278;12.588;2023-08-07T17:59:32;99694.59;;;28.26;57.29
14882;BME280;7533;51.278;12.588;2023-08-07T18:04:35;99701.59;;;28.29;57.37
14882;BME280;7533;51.278;12.588;2023-08-07T18:09:39;99704.31;;;28.29;57.37
14882;BME280;7533;51.278;12.588;2023-08-07T18:14:43;99707.41;;;28.34;57.68
14882;BME280;7533;51.278;12.588;2023-08-07T18:19:46;99700.97;;;28.35;57.42
14882;BME280;7533;51.278;12.588;2023-08-07T18:24:50;99705.88;;;28.39;57.02
14882;BME280;7533;51.278;12.588;2023-08-07T18:29:53;99702.53;;;28.45;57.17
14882;BME280;7533;51.278;12.588;2023-08-07T18:34:56;99704.72;;;28.50;57.13
14882;BME280;7533;51.278;12.588;2023-08-07T18:40:01;99723.13;;;28.48;56.92
14882;BME280;7533;51.278;12.588;2023-08-07T18:45:05;99731.09;;;28.50;56.70
14882;BME280;7533;51.278;12.588;2023-08-07T18:50:09;99729.94;;;28.52;57.11
14882;BME280;7533;51.278;12.588;2023-08-07T18:55:13;99733.16;;;28.56;56.83
14882;BME280;7533;51.278;12.588;2023-08-07T19:00:16;99743.91;;;28.57;56.63
14882;BME280;7533;51.278;12.588;2023-08-07T19:05:19;99754.44;;;28.60;56.60
14882;BME280;7533;51.278;12.588;2023-08-07T19:10:24;99757.88;;;28.62;56.48
14882;BME280;7533;51.278;12.588;2023-08-07T19:15:27;99757.53;;;28.65;56.35
14882;BME280;7533;51.278;12.588;2023-08-07T19:20:29;99744.41;;;28.61;56.39
14882;BME280;7533;51.278;12.588;2023-08-07T19:25:34;99769.09;;;28.67;56.39
14882;BME280;7533;51.278;12.588;2023-08-07T19:30:37;99776.63;;;28.73;56.01
14882;BME280;7533;51.278;12.588;2023-08-07T19:35:44;99780.88;;;28.76;56.29
14882;BME280;7533;51.278;12.588;2023-08-07T19:40:49;99792.09;;;28.73;56.29
14882;BME280;7533;51.278;12.588;2023-08-07T19:45:54;99788.03;;;28.77;56.12
14882;BME280;7533;51.278;12.588;2023-08-07T19:50:58;99795.88;;;28.80;56.04
14882;BME280;7533;51.278;12.588;2023-08-07T19:56:03;99809.31;;;28.82;55.81
14882;BME280;7533;51.278;12.588;2023-08-07T20:01:06;99805.94;;;28.88;55.71
14882;BME280;7533;51.278;12.588;2023-08-07T20:06:09;99807.63;;;28.89;55.98
14882;BME280;7533;51.278;12.588;2023-08-07T20:11:13;99810.91;;;28.92;55.67
14882;BME280;7533;51.278;12.588;2023-08-07T20:16:16;99816.19;;;28.94;55.74
14882;BME280;7533;51.278;12.588;2023-08-07T20:21:19;99830.34;;;28.97;55.35
14882;BME280;7533;51.278;12.588;2023-08-07T20:26:23;99827.63;;;28.97;55.78
14882;BME280;7533;51.278;12.588;2023-08-07T20:31:26;99832.38;;;28.95;55.43
14882;BME280;7533;51.278;12.588;2023-08-07T20:36:29;99842.78;;;29.00;55.07
14882;BME280;7533;51.278;12.588;2023-08-07T20:41:35;99838.19;;;29.01;55.45
14882;BME280;7533;51.278;12.588;2023-08-07T20:46:38;99845.00;;;29.05;55.11
14882;BME280;7533;51.278;12.588;2023-08-07T20:51:41;99844.84;;;29.06;54.74
14882;BME280;7533;51.278;12.588;2023-08-07T20:56:46;99857.28;;;29.09;54.67
14882;BME280;7533;51.278;12.588;2023-08-07T21:01:49;99856.44;;;29.08;54.81
14882;BME280;7533;51.278;12.588;2023-08-07T21:06:53;99855.63;;;29.24;54.51
14882;BME280;7533;51.278;12.588;2023-08-07T21:11:57;99857.66;;;29.22;54.15
14882;BME280;7533;51.278;12.588;2023-08-07T21:17:01;99868.00;;;29.10;53.89
14882;BME280;7533;51.278;12.588;2023-08-07T21:22:04;99872.06;;;28.98;54.03
14882;BME280;7533;51.278;12.588;2023-08-07T21:27:09;99869.63;;;28.87;54.46
14882;BME280;7533;51.278;12.588;2023-08-07T21:32:13;99864.66;;;28.82;54.48
14882;BME280;7533;51.278;12.588;2023-08-07T21:37:17;99873.00;;;28.81;54.65
14882;BME280;7533;51.278;12.588;2023-08-07T21:42:21;99878.78;;;28.78;54.52
14882;BME280;7533;51.278;12.588;2023-08-07T21:47:24;99874.34;;;28.77;54.48
14882;BME280;7533;51.278;12.588;2023-08-07T21:52:27;99880.63;;;28.69;54.58
14882;BME280;7533;51.278;12.588;2023-08-07T21:57:31;99875.53;;;28.74;54.79
14882;BME280;7533;51.278;12.588;2023-08-07T22:02:34;99886.44;;;28.74;54.64
14882;BME280;7533;51.278;12.588;2023-08-07T22:07:38;99869.72;;;28.69;55.15
14882;BME280;7533;51.278;12.588;2023-08-07T22:12:42;99878.75;;;28.69;54.94
14882;BME280;7533;51.278;12.588;2023-08-07T22:17:45;99876.19;;;28.68;55.30
14882;BME280;7533;51.278;12.588;2023-08-07T22:22:49;99874.81;;;28.64;55.27
14882;BME280;7533;51.278;12.588;2023-08-07T22:27:53;99867.59;;;28.55;55.47
14882;BME280;7533;51.278;12.588;2023-08-07T22:32:57;99877.44;;;28.48;55.85
14882;BME280;7533;51.278;12.588;2023-08-07T22:38:03;99865.50;;;28.40;55.92
14882;BME280;7533;51.278;12.588;2023-08-07T22:43:08;99860.19;;;28.39;55.84
14882;BME280;7533;51.278;12.588;2023-08-07T22:48:13;99865.28;;;28.34;55.98
14882;BME280;7533;51.278;12.588;2023-08-07T22:53:16;99861.28;;;28.28;56.19
14882;BME280;7533;51.278;12.588;2023-08-07T22:58:20;99858.75;;;28.27;56.18
14882;BME280;7533;51.278;12.588;2023-08-07T23:03:23;99853.09;;;28.20;56.43
14882;BME280;7533;51.278;12.588;2023-08-07T23:08:26;99845.56;;;28.14;56.33
14882;BME280;7533;51.278;12.588;2023-08-07T23:13:30;99849.97;;;28.07;56.71
14882;BME280;7533;51.278;12.588;2023-08-07T23:18:33;99847.88;;;28.01;56.79
14882;BME280;7533;51.278;12.588;2023-08-07T23:23:36;99840.50;;;27.93;56.88
14882;BME280;7533;51.278;12.588;2023-08-07T23:28:40;99844.72;;;27.87;56.96
14882;BME280;7533;51.278;12.588;2023-08-07T23:33:43;99847.91;;;27.83;57.23
14882;BME280;7533;51.278;12.588;2023-08-07T23:38:46;99835.66;;;27.79;57.29
14882;BME280;7533;51.278;12.588;2023-08-07T23:43:50;99839.69;;;27.75;57.47
14882;BME280;7533;51.278;12.588;2023-08-07T23:48:53;99848.63;;;27.67;57.67
14882;BME280;7533;51.278;12.588;2023-08-07T23:53:57;99849.22;;;27.61;57.71
14882;BME280;7533;51.278;12.588;2023-08-07T23:59:01;99849.00;;;27.54;57.90
